Time;durP1;ratioP1;P1;durP2;ratioP2;P2;SDS_P1;SDS_P2;PMS_P1;PMS_P2;Temp;Humidity;BMP_temperature;BMP_pressure;BME280_temperature;BME280_humidity;BME280_pressure;Samples;Min_cycle;Max_cycle;Signal;HPM_P1;HPM_P2
2021/11/20 00:01:23;;;;;;;24.92;17.50;;;11.20;86.60;;;;;;4930894;29;20136;-85
2021/11/20 00:03:50;;;;;;;24.00;18.30;;;11.30;86.60;;;;;;4932662;29;20508;-86
2021/11/20 00:06:21;;;;;;;29.23;19.23;;;11.30;86.60;;;;;;4931018;29;20072;-87
2021/11/20 00:08:49;;;;;;;26.30;17.05;;;11.20;86.60;;;;;;4934455;29;20059;-86
2021/11/20 00:11:18;;;;;;;26.00;17.63;;;11.20;86.60;;;;;;4934371;29;20071;-86
2021/11/20 00:13:46;;;;;;;24.13;17.17;;;11.20;86.60;;;;;;4934712;29;20055;-86
2021/11/20 00:16:13;;;;;;;21.45;15.98;;;11.20;86.60;;;;;;4934372;29;20102;-86
2021/11/20 00:18:41;;;;;;;23.67;16.67;;;11.20;86.60;;;;;;4936377;29;20514;-85
2021/11/20 00:21:16;;;;;;;28.15;17.67;;;11.20;86.60;;;;;;4934191;29;20543;-87
2021/11/20 00:23:48;;;;;;;21.67;14.52;;;11.20;86.60;;;;;;4934284;29;20546;-87
2021/11/20 00:26:19;;;;;;;23.83;15.68;;;11.20;86.50;;;;;;4934236;29;20082;-86
2021/11/20 00:31:32;;;;;;;23.15;15.23;;;11.20;86.50;;;;;;4920113;29;20047;-87
2021/11/20 00:33:59;;;;;;;21.98;14.60;;;11.20;86.50;;;;;;4935121;29;20527;-86
2021/11/20 00:36:26;;;;;;;22.02;14.70;;;11.20;86.50;;;;;;4935530;29;20052;-86
2021/11/20 00:38:52;;;;;;;22.05;15.30;;;11.20;86.50;;;;;;4934161;29;20135;-85
2021/11/20 00:41:24;;;;;;;20.23;14.05;;;11.20;86.50;;;;;;4933926;29;20053;-86
2021/11/20 00:43:53;;;;;;;22.15;14.27;;;11.20;86.50;;;;;;4934088;29;20051;-85
2021/11/20 00:46:24;;;;;;;19.80;12.88;;;11.20;86.50;;;;;;4918953;29;20229;-86
2021/11/20 00:48:51;;;;;;;17.25;12.38;;;11.10;86.50;;;;;;4935467;29;20134;-86
2021/11/20 00:51:21;;;;;;;19.83;12.35;;;11.10;86.50;;;;;;4932299;29;20044;-86
2021/11/20 00:53:49;;;;;;;16.73;12.45;;;11.20;86.50;;;;;;4933649;29;20055;-86
2021/11/20 00:56:18;;;;;;;18.35;12.77;;;11.10;86.50;;;;;;4933550;29;20058;-85
2021/11/20 00:58:45;;;;;;;20.65;13.15;;;11.10;86.50;;;;;;4933778;29;20048;-86
2021/11/20 01:01:15;;;;;;;19.88;11.88;;;11.10;86.50;;;;;;4933363;29;20099;-85
2021/11/20 01:03:43;;;;;;;18.92;12.95;;;11.10;86.50;;;;;;4934439;29;20048;-86
2021/11/20 01:06:10;;;;;;;21.67;12.63;;;11.10;86.50;;;;;;4933473;29;20052;-86
2021/11/20 01:08:40;;;;;;;21.75;13.52;;;11.10;86.50;;;;;;4932099;29;20065;-85
2021/11/20 01:11:16;;;;;;;18.27;12.48;;;11.10;86.50;;;;;;4933358;29;20044;-85
2021/11/20 01:13:43;;;;;;;21.20;14.05;;;11.10;86.50;;;;;;4933145;29;20317;-86
2021/11/20 01:16:12;;;;;;;16.98;11.63;;;11.10;86.50;;;;;;4933437;29;20116;-86
2021/11/20 01:18:40;;;;;;;19.23;12.68;;;11.10;86.50;;;;;;4933440;29;20505;-86
2021/11/20 01:21:07;;;;;;;20.40;12.52;;;11.10;86.50;;;;;;4933423;29;20048;-85
2021/11/20 01:23:35;;;;;;;20.73;12.93;;;11.10;86.50;;;;;;4933096;29;20051;-85
2021/11/20 01:26:03;;;;;;;21.25;13.50;;;11.10;86.60;;;;;;4933336;29;20127;-86
2021/11/20 01:28:35;;;;;;;22.75;14.10;;;11.10;86.50;;;;;;4932938;29;20059;-85
2021/11/20 01:31:04;;;;;;;20.52;13.88;;;11.00;86.60;;;;;;4933275;29;20118;-85
2021/11/20 01:33:34;;;;;;;19.63;13.10;;;11.00;86.60;;;;;;4932247;29;20196;-86
2021/11/20 01:36:01;;;;;;;24.83;14.90;;;11.10;86.60;;;;;;4932909;29;20048;-86
2021/11/20 01:38:28;;;;;;;20.48;13.40;;;11.00;86.60;;;;;;4932956;29;20067;-85
2021/11/20 01:40:55;;;;;;;22.58;14.13;;;11.10;86.60;;;;;;4932873;29;20043;-86
2021/11/20 01:43:22;;;;;;;23.42;14.68;;;11.10;86.60;;;;;;4932621;29;20464;-86
2021/11/20 01:45:51;;;;;;;20.55;14.27;;;11.00;86.50;;;;;;4934789;29;20123;-85
2021/11/20 01:48:44;;;;;;;22.63;15.02;;;11.00;86.50;;;;;;4932043;29;20055;-85
2021/11/20 01:51:16;;;;;;;22.98;15.57;;;11.00;86.50;;;;;;4932861;29;20055;-85
2021/11/20 01:53:48;;;;;;;21.65;14.13;;;11.00;86.50;;;;;;4932751;29;20051;-87
2021/11/20 01:56:24;;;;;;;21.95;14.73;;;11.00;86.50;;;;;;4932483;29;20063;-86
2021/11/20 01:58:58;;;;;;;18.35;14.23;;;11.00;86.50;;;;;;4932302;29;20040;-87
2021/11/20 02:01:43;;;;;;;24.33;14.98;;;11.00;86.40;;;;;;4932501;29;20055;-87
2021/11/20 02:04:25;;;;;;;19.50;13.85;;;11.00;86.40;;;;;;4932576;29;20497;-86
2021/11/20 02:06:59;;;;;;;20.55;13.98;;;11.00;86.40;;;;;;4930719;29;20063;-86
2021/11/20 02:09:29;;;;;;;20.25;13.80;;;10.90;86.30;;;;;;4934072;29;20114;-85
2021/11/20 02:12:04;;;;;;;21.02;14.48;;;11.00;86.30;;;;;;4932112;29;20051;-85
2021/11/20 02:14:32;;;;;;;19.05;15.10;;;10.90;86.30;;;;;;4932274;29;20056;-86
2021/11/20 02:17:12;;;;;;;21.50;14.00;;;10.90;86.30;;;;;;4932287;29;20054;-85
2021/11/20 02:19:43;;;;;;;18.95;14.40;;;10.90;86.20;;;;;;4932281;29;20567;-85
2021/11/20 02:22:36;;;;;;;19.45;15.00;;;10.90;86.20;;;;;;4932316;29;20051;-85
2021/11/20 02:25:02;;;;;;;26.77;15.63;;;10.90;86.20;;;;;;4930493;29;20051;-86
2021/11/20 02:27:43;;;;;;;19.02;14.90;;;10.90;86.10;;;;;;4933679;29;20043;-85
2021/11/20 02:30:22;;;;;;;19.63;15.52;;;10.90;86.10;;;;;;4931008;29;20484;-85
2021/11/20 02:33:07;;;;;;;29.67;15.57;;;10.90;86.10;;;;;;4931893;29;20508;-85
2021/11/20 02:35:46;;;;;;;22.30;16.13;;;10.90;86.10;;;;;;4931856;29;20055;-85
2021/11/20 02:38:17;;;;;;;21.42;15.32;;;10.90;86.10;;;;;;4931871;29;20114;-85
2021/11/20 02:40:45;;;;;;;22.58;16.00;;;10.90;86.10;;;;;;4931651;29;20110;-85
2021/11/20 02:43:12;;;;;;;20.98;16.13;;;10.90;86.10;;;;;;4931980;29;20055;-86
2021/11/20 02:46:09;;;;;;;24.23;17.35;;;10.80;86.10;;;;;;4933806;29;20469;-87
2021/11/20 02:48:37;;;;;;;24.00;17.08;;;10.90;86.10;;;;;;4870474;29;20160;-86
2021/11/20 02:51:08;;;;;;;24.35;16.85;;;10.80;86.00;;;;;;4867464;29;20518;-85
2021/11/20 02:53:38;;;;;;;31.08;17.25;;;10.80;86.00;;;;;;4868687;29;20068;-85
2021/11/20 02:56:10;;;;;;;22.27;16.13;;;10.80;85.90;;;;;;4866961;29;20053;-85
2021/11/20 02:58:38;;;;;;;24.23;17.77;;;10.80;86.00;;;;;;4870471;29;20049;-85
2021/11/20 03:01:12;;;;;;;22.20;17.17;;;10.80;86.00;;;;;;4871825;29;20080;-85
2021/11/20 03:03:40;;;;;;;23.85;17.48;;;10.80;86.00;;;;;;4870094;29;20052;-85
2021/11/20 03:06:07;;;;;;;24.98;17.60;;;10.80;86.00;;;;;;4868702;29;20056;-85
2021/11/20 03:08:34;;;;;;;23.73;17.13;;;10.80;86.00;;;;;;4867241;29;20056;-85
2021/11/20 03:11:01;;;;;;;23.92;17.05;;;10.80;86.00;;;;;;4868244;29;20045;-85
2021/11/20 03:13:29;;;;;;;27.55;18.88;;;10.80;86.00;;;;;;4870129;29;20068;-84
2021/11/20 03:15:56;;;;;;;24.73;19.77;;;10.80;86.00;;;;;;4871202;29;20101;-85
2021/11/20 03:18:23;;;;;;;27.83;18.30;;;10.80;86.00;;;;;;4869617;29;20453;-85
2021/11/20 03:20:50;;;;;;;25.20;18.52;;;10.80;86.00;;;;;;4867292;29;20053;-87
2021/11/20 03:23:27;;;;;;;22.85;16.80;;;10.80;86.00;;;;;;4868443;29;20426;-87
2021/11/20 03:25:54;;;;;;;25.92;18.95;;;10.80;86.00;;;;;;4914763;29;20056;-87
2021/11/20 03:28:22;;;;;;;25.98;18.88;;;10.70;86.00;;;;;;4931417;29;20048;-87
2021/11/20 03:30:49;;;;;;;25.35;19.50;;;10.80;86.00;;;;;;4932896;29;20058;-86
2021/11/20 03:33:17;;;;;;;25.48;20.00;;;10.70;86.00;;;;;;4929677;29;20300;-86
2021/11/20 03:35:45;;;;;;;25.00;19.15;;;10.70;86.00;;;;;;4931283;29;20054;-87
2021/11/20 03:38:12;;;;;;;26.67;19.42;;;10.70;86.00;;;;;;4931342;29;20512;-86
2021/11/20 03:40:40;;;;;;;26.42;20.15;;;10.70;86.00;;;;;;4932194;29;20048;-86
2021/11/20 03:43:07;;;;;;;25.80;20.17;;;10.70;86.00;;;;;;4935287;29;20051;-86
2021/11/20 03:45:35;;;;;;;26.27;20.80;;;10.70;86.00;;;;;;4935834;29;20055;-86
2021/11/20 03:48:05;;;;;;;25.77;20.15;;;10.70;86.00;;;;;;4933518;29;20418;-86
2021/11/20 03:50:32;;;;;;;28.42;20.77;;;10.70;86.00;;;;;;4934922;29;20051;-86
2021/11/20 03:52:59;;;;;;;23.77;19.52;;;10.70;86.00;;;;;;4934545;29;20043;-85
2021/11/20 03:55:32;;;;;;;27.30;21.30;;;10.70;86.00;;;;;;4934654;29;20052;-85
2021/11/20 03:58:00;;;;;;;25.38;20.92;;;10.70;85.90;;;;;;4935406;29;20393;-85
2021/11/20 04:00:30;;;;;;;24.48;20.02;;;10.70;86.00;;;;;;4936440;29;20701;-86
2021/11/20 04:02:58;;;;;;;29.02;20.83;;;10.70;85.90;;;;;;4934659;29;20413;-85
2021/11/20 04:05:25;;;;;;;27.08;21.02;;;10.60;85.90;;;;;;4934682;29;20119;-85
2021/11/20 04:07:52;;;;;;;22.90;19.48;;;10.60;85.90;;;;;;4934164;29;20040;-86
2021/11/20 04:10:27;;;;;;;25.92;20.70;;;10.60;85.90;;;;;;4934595;29;20048;-85
2021/11/20 04:12:54;;;;;;;27.50;20.70;;;10.70;85.90;;;;;;4935890;29;20043;-86
2021/11/20 04:15:25;;;;;;;24.45;20.13;;;10.60;85.90;;;;;;4935682;29;20067;-87
2021/11/20 04:17:53;;;;;;;26.33;20.35;;;10.60;85.90;;;;;;4934452;29;20126;-86
2021/11/20 04:20:22;;;;;;;23.85;19.30;;;10.60;85.90;;;;;;4934429;29;20052;-86
2021/11/20 04:22:49;;;;;;;26.17;18.50;;;10.60;85.90;;;;;;4932728;29;20039;-87
2021/11/20 04:25:19;;;;;;;24.35;19.38;;;10.60;85.90;;;;;;4919201;29;20048;-86
2021/11/20 04:27:46;;;;;;;23.65;18.85;;;10.60;85.90;;;;;;4932549;29;20583;-87
2021/11/20 04:30:14;;;;;;;24.80;19.08;;;10.60;85.90;;;;;;4932893;29;20054;-86
2021/11/20 04:32:42;;;;;;;24.30;19.33;;;10.60;85.90;;;;;;4934094;29;20051;-85
2021/11/20 04:35:10;;;;;;;24.35;19.27;;;10.60;85.90;;;;;;4932922;29;20059;-86
2021/11/20 04:37:38;;;;;;;23.42;18.50;;;10.60;85.90;;;;;;4933704;29;20048;-85
2021/11/20 04:40:07;;;;;;;23.65;17.70;;;10.60;85.80;;;;;;4934099;29;20052;-85
2021/11/20 04:42:34;;;;;;;22.83;18.30;;;10.60;85.80;;;;;;4934801;29;20106;-85
2021/11/20 04:45:02;;;;;;;22.27;18.17;;;10.50;85.80;;;;;;4933900;29;20063;-85
2021/11/20 04:47:29;;;;;;;22.63;17.48;;;10.60;85.80;;;;;;4933886;29;20056;-85
2021/11/20 04:49:56;;;;;;;24.13;18.17;;;10.60;85.80;;;;;;4933709;29;20047;-85
2021/11/20 04:52:23;;;;;;;22.98;17.92;;;10.50;85.80;;;;;;4932542;29;20051;-85
2021/11/20 04:54:50;;;;;;;26.58;19.45;;;10.50;85.80;;;;;;4935226;29;20055;-85
2021/11/20 04:57:28;;;;;;;23.00;18.30;;;10.50;85.80;;;;;;4933490;29;20501;-85
2021/11/20 04:59:56;;;;;;;21.42;17.77;;;10.50;85.80;;;;;;4933770;29;20048;-85
2021/11/20 05:02:23;;;;;;;23.20;18.58;;;10.50;85.80;;;;;;4932204;29;20509;-85
2021/11/20 05:04:50;;;;;;;22.17;18.10;;;10.50;85.80;;;;;;4933706;29;20052;-85
2021/11/20 05:07:17;;;;;;;21.35;17.75;;;10.50;85.80;;;;;;4918357;29;20132;-85
2021/11/20 05:09:44;;;;;;;25.42;18.70;;;10.50;85.80;;;;;;4931586;29;20453;-85
2021/11/20 05:12:11;;;;;;;23.77;17.70;;;10.50;85.80;;;;;;4933438;29;20051;-85
2021/11/20 05:14:38;;;;;;;23.08;18.27;;;10.50;85.80;;;;;;4933461;29;20055;-85
2021/11/20 05:17:06;;;;;;;22.70;18.63;;;10.50;85.90;;;;;;4933367;29;20055;-85
2021/11/20 05:19:33;;;;;;;21.92;17.08;;;10.50;85.90;;;;;;4933337;29;20059;-85
2021/11/20 05:22:00;;;;;;;23.92;17.33;;;10.50;85.90;;;;;;4933794;29;20107;-87
2021/11/20 05:24:27;;;;;;;21.75;17.67;;;10.50;85.90;;;;;;4935056;29;20110;-87
2021/11/20 05:26:54;;;;;;;20.50;17.30;;;10.50;85.80;;;;;;4933164;29;20066;-86
2021/11/20 05:29:34;;;;;;;20.88;17.58;;;10.50;85.80;;;;;;4932947;29;20055;-85
2021/11/20 05:32:03;;;;;;;22.92;17.48;;;10.50;85.80;;;;;;4933105;29;20044;-85
2021/11/20 05:34:30;;;;;;;22.77;16.83;;;10.50;85.80;;;;;;4931710;29;20110;-85
2021/11/20 05:36:57;;;;;;;21.50;17.70;;;10.50;85.80;;;;;;4933949;29;20052;-85
2021/11/20 05:39:24;;;;;;;21.83;16.98;;;10.40;85.80;;;;;;4934528;29;20450;-85
2021/11/20 05:41:52;;;;;;;23.48;17.27;;;10.40;85.80;;;;;;4931612;29;20048;-85
2021/11/20 05:44:19;;;;;;;19.15;17.05;;;10.40;85.70;;;;;;4932856;29;20051;-85
2021/11/20 05:46:46;;;;;;;20.30;16.48;;;10.40;85.70;;;;;;4932984;29;20048;-85
2021/11/20 05:49:14;;;;;;;18.95;16.95;;;10.50;85.70;;;;;;4932375;29;20059;-85
2021/11/20 05:51:40;;;;;;;17.98;15.73;;;10.40;85.70;;;;;;4934877;29;20508;-85
2021/11/20 05:54:08;;;;;;;17.08;14.88;;;10.40;85.70;;;;;;4932628;29;20505;-85
2021/11/20 05:56:35;;;;;;;25.35;16.65;;;10.40;85.60;;;;;;4932649;29;20055;-85
2021/11/20 05:59:20;;;;;;;20.55;17.10;;;10.40;85.50;;;;;;4932601;29;20150;-85
2021/11/20 06:01:47;;;;;;;19.67;16.92;;;10.40;85.50;;;;;;4932588;29;20044;-85
2021/11/20 06:04:14;;;;;;;18.55;16.48;;;10.40;85.40;;;;;;4931998;29;20099;-85
2021/11/20 06:06:41;;;;;;;18.02;16.13;;;10.40;85.40;;;;;;4934513;29;20051;-85
2021/11/20 06:09:09;;;;;;;18.52;16.20;;;10.40;85.40;;;;;;4932207;29;20051;-85
2021/11/20 06:11:36;;;;;;;20.80;16.85;;;10.40;85.30;;;;;;4932282;29;20052;-85
2021/11/20 06:14:04;;;;;;;19.35;17.35;;;10.40;85.30;;;;;;4932267;29;20051;-85
2021/11/20 06:16:32;;;;;;;20.02;17.50;;;10.40;85.30;;;;;;4932640;29;20513;-85
2021/11/20 06:18:59;;;;;;;19.13;16.77;;;10.40;85.30;;;;;;4932905;29;20086;-85
2021/11/20 06:21:26;;;;;;;18.77;16.75;;;10.40;85.30;;;;;;4932169;29;20058;-85
2021/11/20 06:23:54;;;;;;;19.73;17.73;;;10.40;85.30;;;;;;4932108;29;20051;-85
2021/11/20 06:26:21;;;;;;;20.25;18.25;;;10.40;85.30;;;;;;4932035;29;20051;-85
2021/11/20 06:28:49;;;;;;;18.30;16.38;;;10.40;85.30;;;;;;4932192;29;20059;-85
2021/11/20 06:31:16;;;;;;;19.48;17.42;;;10.30;85.30;;;;;;4916974;29;20505;-85
2021/11/20 06:33:45;;;;;;;21.20;18.08;;;10.30;85.30;;;;;;4933774;29;20048;-85
2021/11/20 06:36:12;;;;;;;19.08;17.17;;;10.30;85.20;;;;;;4931908;29;20054;-85
2021/11/20 06:38:40;;;;;;;19.60;17.10;;;10.30;85.20;;;;;;4931890;29;20416;-85
2021/11/20 06:41:08;;;;;;;19.70;17.67;;;10.30;85.20;;;;;;4931817;29;20098;-85
2021/11/20 06:43:36;;;;;;;22.38;17.65;;;10.30;85.20;;;;;;4931809;29;20052;-85
2021/11/20 06:46:07;;;;;;;21.15;17.88;;;10.30;85.20;;;;;;4931882;29;20453;-85
2021/11/20 06:48:35;;;;;;;20.50;18.33;;;10.30;85.20;;;;;;4933510;29;20051;-85
2021/11/20 06:51:04;;;;;;;20.17;18.02;;;10.30;85.20;;;;;;4931729;29;20059;-85
2021/11/20 06:53:31;;;;;;;19.95;17.85;;;10.30;85.20;;;;;;4931743;29;20055;-86
2021/11/20 06:55:59;;;;;;;20.35;18.25;;;10.30;85.20;;;;;;4931606;29;20055;-85
2021/11/20 06:58:52;;;;;;;20.20;18.08;;;10.30;85.20;;;;;;4930480;29;20580;-85
2021/11/20 07:01:22;;;;;;;21.52;18.88;;;10.30;85.20;;;;;;4916866;29;20421;-86
2021/11/20 07:03:57;;;;;;;20.00;17.75;;;10.30;85.20;;;;;;4929917;29;20110;-86
2021/11/20 07:06:28;;;;;;;19.15;17.15;;;10.20;85.20;;;;;;4933006;29;20107;-86
2021/11/20 07:08:56;;;;;;;20.85;18.10;;;10.30;85.30;;;;;;4931586;29;20405;-86
2021/11/20 07:11:25;;;;;;;19.13;17.05;;;10.20;85.30;;;;;;4930305;29;20051;-86
2021/11/20 07:13:53;;;;;;;20.10;18.00;;;10.20;85.20;;;;;;4931517;29;20560;-86
2021/11/20 07:16:22;;;;;;;20.38;18.15;;;10.20;85.20;;;;;;4933689;29;20111;-86
2021/11/20 07:18:49;;;;;;;19.58;17.33;;;10.20;85.20;;;;;;4935984;29;20106;-86
2021/11/20 07:21:17;;;;;;;18.85;16.75;;;10.20;85.20;;;;;;4934025;29;20055;-86
2021/11/20 07:23:44;;;;;;;18.98;15.98;;;10.20;85.20;;;;;;4934755;29;20526;-85
2021/11/20 07:26:13;;;;;;;16.75;15.07;;;10.20;85.20;;;;;;4936627;29;20532;-86
2021/11/20 07:28:40;;;;;;;17.73;14.85;;;10.20;85.10;;;;;;4936788;29;20050;-85
2021/11/20 07:31:27;;;;;;;16.40;14.20;;;10.20;85.10;;;;;;4922142;29;20107;-86
2021/11/20 07:33:54;;;;;;;16.67;14.85;;;10.20;85.00;;;;;;4938027;29;20073;-86
2021/11/20 07:36:21;;;;;;;16.83;14.88;;;10.20;85.00;;;;;;4937317;29;20048;-86
2021/11/20 07:38:52;;;;;;;16.73;14.43;;;10.20;84.90;;;;;;4936101;29;20056;-86
2021/11/20 07:41:20;;;;;;;16.73;14.15;;;10.20;84.90;;;;;;4936278;29;20512;-86
2021/11/20 07:43:46;;;;;;;16.73;14.07;;;10.20;84.80;;;;;;4936517;29;20047;-85
2021/11/20 07:46:14;;;;;;;15.93;14.00;;;10.20;84.80;;;;;;4935771;29;20051;-86
2021/11/20 07:48:42;;;;;;;16.75;14.43;;;10.20;84.80;;;;;;4939026;29;20406;-86
2021/11/20 07:51:11;;;;;;;17.13;14.85;;;10.10;84.80;;;;;;4936748;28;20118;-86
2021/11/20 07:53:39;;;;;;;19.15;14.82;;;10.10;84.70;;;;;;4935734;29;20052;-86
2021/11/20 07:56:08;;;;;;;17.10;13.82;;;10.20;84.70;;;;;;4935950;29;20055;-86
2021/11/20 07:58:35;;;;;;;16.40;14.18;;;10.10;84.70;;;;;;4934932;29;20043;-86
2021/11/20 08:01:03;;;;;;;18.13;15.02;;;10.10;84.70;;;;;;4935377;29;20436;-86
2021/11/20 08:03:31;;;;;;;17.98;14.65;;;10.10;84.70;;;;;;4934931;29;20052;-85
2021/11/20 08:05:58;;;;;;;17.52;14.52;;;10.10;84.70;;;;;;4934668;29;20047;-86
2021/11/20 08:08:26;;;;;;;17.05;14.45;;;10.10;84.70;;;;;;4934594;29;20055;-85
2021/11/20 08:10:53;;;;;;;17.55;14.52;;;10.10;84.70;;;;;;4934457;29;20055;-85
2021/11/20 08:13:20;;;;;;;17.23;14.52;;;10.10;84.70;;;;;;4934745;29;20116;-85
2021/11/20 08:15:47;;;;;;;16.70;14.90;;;10.10;84.70;;;;;;4936234;29;20056;-85
2021/11/20 08:18:14;;;;;;;17.80;15.10;;;10.10;84.60;;;;;;4934798;29;20051;-85
2021/11/20 08:20:44;;;;;;;17.23;13.43;;;10.10;84.60;;;;;;4934243;29;20048;-85
2021/11/20 08:23:13;;;;;;;17.88;14.80;;;10.10;84.60;;;;;;4934484;29;20047;-85
2021/11/20 08:25:46;;;;;;;17.77;14.85;;;10.00;84.60;;;;;;4934438;29;20056;-85
2021/11/20 08:28:16;;;;;;;19.10;14.63;;;10.10;84.60;;;;;;4934207;29;20100;-85
2021/11/20 08:30:45;;;;;;;16.95;14.35;;;10.00;84.50;;;;;;4936118;29;20059;-85
2021/11/20 08:33:12;;;;;;;15.45;13.73;;;10.00;84.50;;;;;;4934175;29;20052;-85
2021/11/20 08:35:40;;;;;;;18.98;14.43;;;10.00;84.50;;;;;;4934001;29;20476;-86
2021/11/20 08:38:12;;;;;;;20.20;14.88;;;10.00;84.50;;;;;;4933960;29;20453;-85
2021/11/20 08:40:41;;;;;;;17.63;14.90;;;10.00;84.50;;;;;;4934048;29;20048;-85
2021/11/20 08:43:08;;;;;;;19.80;15.10;;;10.00;84.40;;;;;;4933760;29;20531;-85
2021/11/20 08:45:39;;;;;;;19.27;15.88;;;10.00;84.40;;;;;;4936077;29;20517;-85
2021/11/20 08:48:07;;;;;;;19.77;15.60;;;10.00;84.30;;;;;;4933823;29;20060;-84
2021/11/20 08:50:38;;;;;;;18.33;15.55;;;10.00;84.30;;;;;;4934044;29;20052;-85
2021/11/20 08:53:06;;;;;;;19.27;15.85;;;10.00;84.30;;;;;;4933762;29;20505;-85
2021/11/20 08:55:34;;;;;;;24.80;17.02;;;9.90;84.30;;;;;;4932320;29;20429;-87
2021/11/20 08:58:01;;;;;;;17.50;15.13;;;9.90;84.20;;;;;;4933821;29;20545;-86
2021/11/20 09:00:30;;;;;;;20.80;15.85;;;9.90;84.20;;;;;;4933542;29;20059;-86
2021/11/20 09:03:20;;;;;;;19.42;16.83;;;9.90;84.20;;;;;;4933731;29;20130;-86
2021/11/20 09:05:50;;;;;;;21.83;16.25;;;9.90;84.10;;;;;;4933523;29;20067;-85
2021/11/20 09:08:24;;;;;;;18.83;15.52;;;9.90;84.10;;;;;;4933680;29;20054;-85
2021/11/20 09:10:57;;;;;;;18.00;15.60;;;9.90;84.10;;;;;;4933478;29;20050;-85
2021/11/20 09:13:30;;;;;;;19.17;15.73;;;9.90;84.00;;;;;;4919378;29;20039;-85
2021/11/20 09:16:06;;;;;;;18.50;15.40;;;9.90;84.10;;;;;;4934522;29;20465;-85
2021/11/20 09:18:35;;;;;;;19.95;16.23;;;9.90;84.10;;;;;;4934047;29;20063;-85
2021/11/20 09:21:06;;;;;;;20.77;16.10;;;9.90;84.00;;;;;;4933277;29;20124;-85
2021/11/20 09:23:33;;;;;;;21.33;16.10;;;9.90;84.00;;;;;;4933244;29;20064;-85
2021/11/20 09:26:12;;;;;;;19.73;15.32;;;9.90;84.00;;;;;;4933319;29;20055;-87
2021/11/20 09:28:57;;;;;;;20.83;16.05;;;9.90;83.90;;;;;;4933020;29;20505;-85
2021/11/20 09:31:27;;;;;;;22.38;15.70;;;9.90;83.90;;;;;;4933262;29;20052;-85
2021/11/20 09:33:56;;;;;;;18.38;14.82;;;9.90;83.90;;;;;;4934231;29;20043;-85
2021/11/20 09:36:26;;;;;;;21.02;15.48;;;9.80;83.80;;;;;;4934270;29;20070;-85
2021/11/20 09:38:53;;;;;;;23.65;15.88;;;9.80;83.80;;;;;;4932550;29;20048;-85
2021/11/20 09:41:25;;;;;;;20.75;15.90;;;9.80;83.80;;;;;;4932525;29;20056;-85
2021/11/20 09:43:58;;;;;;;19.67;15.35;;;9.90;83.70;;;;;;4933006;29;20043;-85
2021/11/20 09:46:37;;;;;;;19.13;15.18;;;9.80;83.70;;;;;;4932959;29;20055;-85
2021/11/20 09:49:21;;;;;;;19.42;14.82;;;9.80;83.70;;;;;;4932786;29;20149;-85
2021/11/20 09:51:50;;;;;;;20.02;15.35;;;9.80;83.70;;;;;;4931289;29;20064;-85
2021/11/20 09:54:24;;;;;;;20.65;15.57;;;9.80;83.70;;;;;;4931924;29;20406;-85
2021/11/20 09:56:55;;;;;;;18.42;14.93;;;9.80;83.60;;;;;;4932162;29;20108;-85
2021/11/20 09:59:30;;;;;;;20.92;15.25;;;9.80;83.60;;;;;;4932535;29;20473;-85
2021/11/20 10:02:15;;;;;;;19.45;14.85;;;9.80;83.60;;;;;;4932611;29;20067;-85
2021/11/20 10:04:48;;;;;;;21.00;15.43;;;9.80;83.50;;;;;;4932583;29;20047;-85
2021/11/20 10:07:33;;;;;;;19.05;15.07;;;9.80;83.50;;;;;;4932855;29;20473;-87
2021/11/20 10:10:17;;;;;;;21.55;15.32;;;9.80;83.50;;;;;;4930597;29;20047;-87
2021/11/20 10:12:52;;;;;;;19.55;15.55;;;9.80;83.50;;;;;;4934336;29;20094;-86
2021/11/20 10:15:29;;;;;;;20.65;14.43;;;9.80;83.40;;;;;;4931907;29;20056;-85
2021/11/20 10:18:20;;;;;;;18.63;14.35;;;9.80;83.50;;;;;;4932259;29;20053;-85
2021/11/20 10:20:53;;;;;;;21.60;14.77;;;9.80;83.40;;;;;;4932093;29;20051;-85
2021/11/20 10:23:50;;;;;;;17.80;14.52;;;9.80;83.40;;;;;;4932269;29;20138;-85
2021/11/20 10:26:19;;;;;;;19.52;14.60;;;9.80;83.40;;;;;;4931915;29;20051;-86
2021/11/20 10:28:59;;;;;;;18.52;14.07;;;9.80;83.40;;;;;;4932160;29;20051;-86
2021/11/20 10:31:38;;;;;;;18.83;14.23;;;9.80;83.30;;;;;;4918216;29;20471;-85
2021/11/20 10:34:32;;;;;;;17.10;13.30;;;9.80;83.30;;;;;;4930770;29;20111;-86
2021/11/20 10:37:04;;;;;;;19.67;13.32;;;9.80;83.20;;;;;;4930640;29;20055;-85
2021/11/20 10:39:34;;;;;;;18.58;14.10;;;9.80;83.20;;;;;;4931893;29;20062;-85
2021/11/20 10:42:20;;;;;;;18.10;14.27;;;9.80;83.20;;;;;;4930684;29;20052;-85
2021/11/20 10:44:55;;;;;;;17.25;13.70;;;9.80;83.20;;;;;;4931993;29;20063;-86
2021/11/20 10:47:33;;;;;;;19.63;13.52;;;9.80;83.10;;;;;;4931840;29;20099;-85
2021/11/20 10:50:38;;;;;;;17.83;13.68;;;9.80;83.10;;;;;;4930896;29;20043;-85
2021/11/20 10:53:43;;;;;;;19.83;14.05;;;9.80;83.10;;;;;;4930456;29;20118;-85
2021/11/20 10:56:22;;;;;;;19.67;13.73;;;9.70;83.10;;;;;;4931424;29;20524;-86
2021/11/20 10:59:27;;;;;;;19.63;13.50;;;9.70;83.00;;;;;;4931954;29;20048;-86
2021/11/20 11:02:32;;;;;;;16.75;13.63;;;9.70;83.00;;;;;;4876819;29;20558;-85
2021/11/20 11:05:28;;;;;;;18.98;14.07;;;9.70;83.00;;;;;;4876752;29;20045;-85
2021/11/20 11:08:19;;;;;;;18.58;12.57;;;9.70;83.00;;;;;;4878462;29;20056;-85
2021/11/20 11:10:51;;;;;;;24.27;15.95;;;9.70;82.90;;;;;;4876727;29;20048;-85
2021/11/20 11:13:52;;;;;;;22.60;14.02;;;9.70;82.90;;;;;;4876655;29;20125;-85
2021/11/20 11:16:44;;;;;;;22.33;14.98;;;9.70;82.90;;;;;;4890297;29;20052;-85
2021/11/20 11:19:22;;;;;;;20.42;14.40;;;9.70;82.90;;;;;;4875406;29;20137;-85
2021/11/20 11:22:21;;;;;;;21.02;14.63;;;9.70;82.80;;;;;;4874600;29;20057;-84
2021/11/20 11:25:19;;;;;;;18.77;13.73;;;9.70;82.80;;;;;;4889291;29;20052;-85
2021/11/20 11:28:20;;;;;;;20.85;14.40;;;9.70;82.80;;;;;;4873710;29;20671;-85
2021/11/20 11:30:52;;;;;;;17.45;13.10;;;9.70;82.80;;;;;;4874303;29;20523;-85
2021/11/20 11:33:20;;;;;;;18.10;14.07;;;9.70;82.70;;;;;;4888568;29;20060;-85
2021/11/20 11:35:57;;;;;;;19.65;14.30;;;9.70;82.70;;;;;;4879916;29;20537;-87
2021/11/20 11:39:02;;;;;;;18.67;13.73;;;9.70;82.70;;;;;;4903285;29;20053;-87
2021/11/20 11:41:53;;;;;;;;;;;9.70;82.70;;;;;;4930569;29;20425;-84
2021/11/20 11:44:36;;;;;;;21.30;13.48;;;9.70;82.70;;;;;;4927222;29;19923;-87
2021/11/20 11:47:44;;;;;;;21.58;14.48;;;9.80;82.60;;;;;;4931193;29;20047;-86
2021/11/20 11:50:38;;;;;;;20.00;13.57;;;9.70;82.60;;;;;;4912179;29;20100;-86
2021/11/20 11:53:15;;;;;;;19.02;13.73;;;9.70;82.60;;;;;;4922467;29;20044;-86
2021/11/20 11:55:46;;;;;;;16.90;13.43;;;9.80;82.60;;;;;;4913837;29;20064;-86
2021/11/20 11:58:34;;;;;;;24.48;14.43;;;9.80;82.50;;;;;;4912693;29;20048;-85
2021/11/20 12:01:13;;;;;;;15.50;12.25;;;9.80;82.50;;;;;;4896596;28;20052;-85
2021/11/20 12:03:42;;;;;;;17.92;13.70;;;9.70;82.50;;;;;;4929586;29;20083;-85
2021/11/20 12:06:12;;;;;;;18.00;13.60;;;9.70;82.40;;;;;;4917486;29;20052;-85
2021/11/20 12:08:47;;;;;;;17.98;13.88;;;9.70;82.40;;;;;;4927620;29;20047;-85
2021/11/20 12:11:28;;;;;;;17.90;13.48;;;9.70;82.40;;;;;;4924901;29;20048;-85
2021/11/20 12:14:13;;;;;;;17.75;13.88;;;9.80;82.30;;;;;;4920571;29;20044;-85
2021/11/20 12:16:46;;;;;;;19.38;13.13;;;9.80;82.30;;;;;;4929586;29;20143;-85
2021/11/20 12:19:36;;;;;;;19.88;13.90;;;9.80;82.30;;;;;;4915796;29;20131;-85
2021/11/20 12:22:19;;;;;;;19.85;14.00;;;9.80;82.30;;;;;;4932502;29;20102;-85
2021/11/20 12:24:46;;;;;;;19.10;14.40;;;9.80;82.30;;;;;;4936487;29;20083;-85
2021/11/20 12:27:39;;;;;;;16.60;12.90;;;9.80;82.30;;;;;;4934370;29;20197;-85
2021/11/20 12:30:25;;;;;;;17.77;13.48;;;9.80;82.30;;;;;;4934208;29;20445;-85
2021/11/20 12:32:58;;;;;;;19.70;14.65;;;9.80;82.30;;;;;;4934408;29;20063;-85
2021/11/20 12:36:01;;;;;;;21.55;14.73;;;9.80;82.20;;;;;;4933812;29;20126;-85
2021/11/20 12:38:43;;;;;;;18.08;13.55;;;9.80;82.20;;;;;;4934115;29;20134;-85
2021/11/20 12:41:24;;;;;;;19.52;14.32;;;9.70;82.20;;;;;;4934076;29;20052;-85
2021/11/20 12:44:27;;;;;;;23.58;14.95;;;9.80;82.20;;;;;;4934129;29;20247;-85
2021/11/20 12:47:13;;;;;;;17.80;13.68;;;9.80;82.20;;;;;;4923663;29;20043;-85
2021/11/20 12:49:43;;;;;;;18.05;13.32;;;9.70;82.20;;;;;;4932386;29;20115;-85
2021/11/20 12:52:19;;;;;;;19.13;14.10;;;9.70;82.10;;;;;;4934123;29;20056;-85
2021/11/20 12:55:17;;;;;;;18.17;13.63;;;9.80;82.10;;;;;;4931926;29;20059;-85
2021/11/20 12:57:52;;;;;;;19.17;14.77;;;9.70;82.10;;;;;;4935673;29;20111;-85
2021/11/20 13:00:30;;;;;;;19.38;14.57;;;9.70;82.10;;;;;;4933140;29;20047;-85
2021/11/20 13:03:35;;;;;;;18.35;13.77;;;9.70;82.10;;;;;;4933668;29;20056;-87